<?xml version="1.0" encoding="UTF-8" standalone="no" ?>
<gpx xmlns="http://www.topografix.com/GPX/1/1" xmlns:xsi="http://www.w3.org/2001/XMLSchema-instance" xsi:schemaLocation="http://www.topografix.com/GPX/1/1 http://www.topografix.com/GPX/1/1/gpx.xsd" version="1.1" creator="VisuGPX - https://www.visugpx.com">
  <metadata>
    <name>Ligne_Autour_11-22km</name>
    <desc><![CDATA[gnerando idor:6837548_6837567_8321596_12827438_13194341_]]></desc>
  </metadata>
  <trk>
    <name><![CDATA[Ligne_StPhilbert_20.5km-8321596]]></name>
    <extensions>
      <line xmlns="http://www.topografix.com/GPX/gpx_style/0/2">
        <color>ff8040</color>
        <width>4</width>
      </line>
    </extensions>
    <trkseg>
      <trkpt lat="47.41218" lon="-1.37696">
        <ele>38</ele>
        <time>2024-12-22T14:37:07Z</time>
      </trkpt>
      <trkpt lat="47.41095" lon="-1.37556">
        <ele>38</ele>
        <time>2024-12-22T14:40:34Z</time>
      </trkpt>
      <trkpt lat="47.40885" lon="-1.3718">
        <ele>41</ele>
        <time>2024-12-22T14:47:54Z</time>
      </trkpt>
      <trkpt lat="47.40848" lon="-1.36992">
        <ele>41</ele>
        <time>2024-12-22T14:50:51Z</time>
      </trkpt>
      <trkpt lat="47.40737" lon="-1.36846">
        <ele>39</ele>
        <time>2024-12-22T14:54:10Z</time>
      </trkpt>
      <trkpt lat="47.41247" lon="-1.3596">
        <ele>41</ele>
        <time>2024-12-22T15:11:40Z</time>
      </trkpt>
      <trkpt lat="47.41448" lon="-1.35559">
        <ele>39</ele>
        <time>2024-12-22T15:19:11Z</time>
      </trkpt>
      <trkpt lat="47.41641" lon="-1.35311">
        <ele>39</ele>
        <time>2024-12-22T15:24:52Z</time>
      </trkpt>
      <trkpt lat="47.41308" lon="-1.34789">
        <ele>36</ele>
        <time>2024-12-22T15:35:40Z</time>
      </trkpt>
      <trkpt lat="47.41534" lon="-1.34576">
        <ele>33</ele>
        <time>2024-12-22T15:41:37Z</time>
      </trkpt>
      <trkpt lat="47.41752" lon="-1.3403">
        <ele>31</ele>
        <time>2024-12-22T15:51:10Z</time>
      </trkpt>
      <trkpt lat="47.41571" lon="-1.33818">
        <ele>29</ele>
        <time>2024-12-22T15:56:18Z</time>
      </trkpt>
      <trkpt lat="47.41407" lon="-1.32816">
        <ele>32</ele>
        <time>2024-12-22T16:11:49Z</time>
      </trkpt>
      <trkpt lat="47.41234" lon="-1.30571">
        <ele>23</ele>
        <time>2024-12-22T16:45:49Z</time>
      </trkpt>
      <trkpt lat="47.40815" lon="-1.30656">
        <ele>28</ele>
        <time>2024-12-22T16:55:14Z</time>
      </trkpt>
      <trkpt lat="47.40803" lon="-1.30358">
        <ele>17</ele>
        <time>2024-12-22T16:59:43Z</time>
      </trkpt>
      <trkpt lat="47.40852" lon="-1.30194">
        <ele>16</ele>
        <time>2024-12-22T17:02:25Z</time>
      </trkpt>
      <trkpt lat="47.40943" lon="-1.30158">
        <ele>18</ele>
        <time>2024-12-22T17:04:31Z</time>
      </trkpt>
      <trkpt lat="47.40914" lon="-1.29952">
        <ele>26</ele>
        <time>2024-12-22T17:07:41Z</time>
      </trkpt>
      <trkpt lat="47.41095" lon="-1.29958">
        <ele>23</ele>
        <time>2024-12-22T17:11:43Z</time>
      </trkpt>
      <trkpt lat="47.41132" lon="-1.30012">
        <ele>20</ele>
        <time>2024-12-22T17:12:52Z</time>
      </trkpt>
      <trkpt lat="47.41855" lon="-1.29575">
        <ele>20</ele>
        <time>2024-12-22T17:30:15Z</time>
      </trkpt>
      <trkpt lat="47.41797" lon="-1.29266">
        <ele>24</ele>
        <time>2024-12-22T17:35:04Z</time>
      </trkpt>
      <trkpt lat="47.41612" lon="-1.28853">
        <ele>29</ele>
        <time>2024-12-22T17:42:31Z</time>
      </trkpt>
      <trkpt lat="47.41202" lon="-1.28798">
        <ele>35</ele>
        <time>2024-12-22T17:51:41Z</time>
      </trkpt>
      <trkpt lat="47.4107" lon="-1.28416">
        <ele>34</ele>
        <time>2024-12-22T17:58:08Z</time>
      </trkpt>
      <trkpt lat="47.40495" lon="-1.28641">
        <ele>26</ele>
        <time>2024-12-22T18:11:22Z</time>
      </trkpt>
      <trkpt lat="47.40652" lon="-1.29794">
        <ele>31</ele>
        <time>2024-12-22T18:29:04Z</time>
      </trkpt>
      <trkpt lat="47.39986" lon="-1.29933">
        <ele>16</ele>
        <time>2024-12-22T18:44:02Z</time>
      </trkpt>
      <trkpt lat="47.39871" lon="-1.30061">
        <ele>14</ele>
        <time>2024-12-22T18:47:14Z</time>
      </trkpt>
      <trkpt lat="47.39776" lon="-1.29976">
        <ele>15</ele>
        <time>2024-12-22T18:49:42Z</time>
      </trkpt>
      <trkpt lat="47.3971" lon="-1.29933">
        <ele>17</ele>
        <time>2024-12-22T18:51:18Z</time>
      </trkpt>
      <trkpt lat="47.39673" lon="-1.29848">
        <ele>27</ele>
        <time>2024-12-22T18:52:49Z</time>
      </trkpt>
      <trkpt lat="47.39542" lon="-1.29794">
        <ele>34</ele>
        <time>2024-12-22T18:55:51Z</time>
      </trkpt>
      <trkpt lat="47.39448" lon="-1.29879">
        <ele>36</ele>
        <time>2024-12-22T18:58:18Z</time>
      </trkpt>
      <trkpt lat="47.39435" lon="-1.30134">
        <ele>18</ele>
        <time>2024-12-22T19:02:09Z</time>
      </trkpt>
      <trkpt lat="47.39275" lon="-1.30334">
        <ele>23</ele>
        <time>2024-12-22T19:06:49Z</time>
      </trkpt>
      <trkpt lat="47.39259" lon="-1.30637">
        <ele>24</ele>
        <time>2024-12-22T19:11:23Z</time>
      </trkpt>
      <trkpt lat="47.3925" lon="-1.30977">
        <ele>30</ele>
        <time>2024-12-22T19:16:31Z</time>
      </trkpt>
      <trkpt lat="47.39369" lon="-1.31074">
        <ele>46</ele>
        <time>2024-12-22T19:19:32Z</time>
      </trkpt>
      <trkpt lat="47.39398" lon="-1.31165">
        <ele>45</ele>
        <time>2024-12-22T19:21:03Z</time>
      </trkpt>
      <trkpt lat="47.39505" lon="-1.31238">
        <ele>47</ele>
        <time>2024-12-22T19:23:40Z</time>
      </trkpt>
      <trkpt lat="47.39464" lon="-1.31499">
        <ele>38</ele>
        <time>2024-12-22T19:27:42Z</time>
      </trkpt>
      <trkpt lat="47.40043" lon="-1.33205">
        <ele>36</ele>
        <time>2024-12-22T19:56:26Z</time>
      </trkpt>
      <trkpt lat="47.40191" lon="-1.33387">
        <ele>37</ele>
        <time>2024-12-22T20:00:43Z</time>
      </trkpt>
      <trkpt lat="47.40175" lon="-1.33629">
        <ele>43</ele>
        <time>2024-12-22T20:04:23Z</time>
      </trkpt>
      <trkpt lat="47.4006" lon="-1.33818">
        <ele>44</ele>
        <time>2024-12-22T20:08:12Z</time>
      </trkpt>
      <trkpt lat="47.40113" lon="-1.34115">
        <ele>34</ele>
        <time>2024-12-22T20:12:50Z</time>
      </trkpt>
      <trkpt lat="47.4022" lon="-1.34358">
        <ele>29</ele>
        <time>2024-12-22T20:17:12Z</time>
      </trkpt>
      <trkpt lat="47.40125" lon="-1.34431">
        <ele>31</ele>
        <time>2024-12-22T20:19:34Z</time>
      </trkpt>
      <trkpt lat="47.40249" lon="-1.35189">
        <ele>34</ele>
        <time>2024-12-22T20:31:19Z</time>
      </trkpt>
      <trkpt lat="47.40569" lon="-1.34977">
        <ele>34</ele>
        <time>2024-12-22T20:39:07Z</time>
      </trkpt>
      <trkpt lat="47.40746" lon="-1.35426">
        <ele>34</ele>
        <time>2024-12-22T20:46:56Z</time>
      </trkpt>
      <trkpt lat="47.40906" lon="-1.36658">
        <ele>44</ele>
        <time>2024-12-22T21:05:49Z</time>
      </trkpt>
      <trkpt lat="47.40737" lon="-1.36919">
        <ele>38</ele>
        <time>2024-12-22T21:11:15Z</time>
      </trkpt>
      <trkpt lat="47.41217" lon="-1.37718">
        <ele>38</ele>
        <time>2024-12-22T21:27:20Z</time>
      </trkpt>
    </trkseg>
  </trk>
</gpx>